sensor_id;sensor_type;location;lat;lon;timestamp;P1;durP1;ratioP1;P2;durP2;ratioP2
46941;SDS011;32676;52.630;4.896;2022-09-23T00:00:18;9.50;;;5.30;;
46941;SDS011;32676;52.630;4.896;2022-09-23T00:02:45;7.78;;;4.32;;
46941;SDS011;32676;52.630;4.896;2022-09-23T00:05:14;9.40;;;4.35;;
46941;SDS011;32676;52.630;4.896;2022-09-23T00:07:40;11.85;;;4.22;;
46941;SDS011;32676;52.630;4.896;2022-09-23T00:10:07;10.75;;;4.63;;
46941;SDS011;32676;52.630;4.896;2022-09-23T00:12:34;11.07;;;4.45;;
46941;SDS011;32676;52.630;4.896;2022-09-23T00:15:01;8.02;;;4.43;;
46941;SDS011;32676;52.630;4.896;2022-09-23T00:17:28;9.05;;;4.50;;
46941;SDS011;32676;52.630;4.896;2022-09-23T00:19:56;8.77;;;4.93;;
46941;SDS011;32676;52.630;4.896;2022-09-23T00:22:24;9.35;;;4.55;;
46941;SDS011;32676;52.630;4.896;2022-09-23T00:24:50;9.18;;;4.63;;
46941;SDS011;32676;52.630;4.896;2022-09-23T00:27:17;8.82;;;4.55;;
46941;SDS011;32676;52.630;4.896;2022-09-23T00:29:45;7.85;;;4.13;;
46941;SDS011;32676;52.630;4.896;2022-09-23T00:32:11;9.90;;;5.05;;
46941;SDS011;32676;52.630;4.896;2022-09-23T00:34:38;5.72;;;3.75;;
46941;SDS011;32676;52.630;4.896;2022-09-23T00:37:05;12.23;;;4.80;;
46941;SDS011;32676;52.630;4.896;2022-09-23T00:39:33;6.60;;;4.43;;
46941;SDS011;32676;52.630;4.896;2022-09-23T00:41:59;8.52;;;4.82;;
46941;SDS011;32676;52.630;4.896;2022-09-23T00:44:40;11.57;;;5.93;;
46941;SDS011;32676;52.630;4.896;2022-09-23T00:47:11;8.10;;;4.82;;
46941;SDS011;32676;52.630;4.896;2022-09-23T00:49:41;11.27;;;4.95;;
46941;SDS011;32676;52.630;4.896;2022-09-23T00:52:11;8.98;;;5.10;;
46941;SDS011;32676;52.630;4.896;2022-09-23T00:54:42;9.07;;;5.38;;
46941;SDS011;32676;52.630;4.896;2022-09-23T00:57:10;9.45;;;4.68;;
46941;SDS011;32676;52.630;4.896;2022-09-23T00:59:40;12.27;;;4.78;;
46941;SDS011;32676;52.630;4.896;2022-09-23T01:02:07;13.27;;;5.28;;
46941;SDS011;32676;52.630;4.896;2022-09-23T01:04:34;13.45;;;5.68;;
46941;SDS011;32676;52.630;4.896;2022-09-23T01:07:01;10.25;;;5.15;;
46941;SDS011;32676;52.630;4.896;2022-09-23T01:09:28;15.23;;;6.18;;
46941;SDS011;32676;52.630;4.896;2022-09-23T01:11:59;9.43;;;5.07;;
46941;SDS011;32676;52.630;4.896;2022-09-23T01:14:36;9.60;;;4.47;;
46941;SDS011;32676;52.630;4.896;2022-09-23T01:17:12;10.25;;;5.28;;
46941;SDS011;32676;52.630;4.896;2022-09-23T01:19:58;12.35;;;5.68;;
46941;SDS011;32676;52.630;4.896;2022-09-23T01:22:41;9.48;;;5.10;;
46941;SDS011;32676;52.630;4.896;2022-09-23T01:25:20;9.03;;;4.97;;
46941;SDS011;32676;52.630;4.896;2022-09-23T01:28:01;9.13;;;5.13;;
46941;SDS011;32676;52.630;4.896;2022-09-23T01:30:46;8.80;;;5.05;;
46941;SDS011;32676;52.630;4.896;2022-09-23T01:33:19;14.25;;;4.90;;
46941;SDS011;32676;52.630;4.896;2022-09-23T01:35:54;11.65;;;5.40;;
46941;SDS011;32676;52.630;4.896;2022-09-23T01:38:32;11.43;;;6.10;;
46941;SDS011;32676;52.630;4.896;2022-09-23T01:41:04;14.90;;;6.78;;
46941;SDS011;32676;52.630;4.896;2022-09-23T01:43:41;10.43;;;5.38;;
46941;SDS011;32676;52.630;4.896;2022-09-23T01:46:23;9.60;;;5.28;;
46941;SDS011;32676;52.630;4.896;2022-09-23T01:48:54;12.52;;;6.60;;
46941;SDS011;32676;52.630;4.896;2022-09-23T01:51:29;15.43;;;7.28;;
46941;SDS011;32676;52.630;4.896;2022-09-23T01:54:01;10.20;;;5.93;;
46941;SDS011;32676;52.630;4.896;2022-09-23T01:56:34;12.70;;;6.27;;
46941;SDS011;32676;52.630;4.896;2022-09-23T01:59:06;13.15;;;5.55;;
46941;SDS011;32676;52.630;4.896;2022-09-23T02:01:38;10.30;;;5.30;;
46941;SDS011;32676;52.630;4.896;2022-09-23T02:04:08;12.73;;;6.63;;
46941;SDS011;32676;52.630;4.896;2022-09-23T02:06:40;24.95;;;7.47;;
46941;SDS011;32676;52.630;4.896;2022-09-23T02:09:10;12.85;;;6.43;;
46941;SDS011;32676;52.630;4.896;2022-09-23T02:11:39;13.85;;;6.68;;
46941;SDS011;32676;52.630;4.896;2022-09-23T02:14:12;10.73;;;5.85;;
46941;SDS011;32676;52.630;4.896;2022-09-23T02:16:46;17.02;;;6.40;;
46941;SDS011;32676;52.630;4.896;2022-09-23T02:19:17;10.85;;;6.32;;
46941;SDS011;32676;52.630;4.896;2022-09-23T02:21:48;11.50;;;6.25;;
46941;SDS011;32676;52.630;4.896;2022-09-23T02:24:19;10.55;;;5.70;;
46941;SDS011;32676;52.630;4.896;2022-09-23T02:26:52;11.68;;;6.38;;
46941;SDS011;32676;52.630;4.896;2022-09-23T02:29:24;20.63;;;5.88;;
46941;SDS011;32676;52.630;4.896;2022-09-23T02:32:02;13.75;;;6.75;;
46941;SDS011;32676;52.630;4.896;2022-09-23T02:34:39;10.85;;;6.10;;
46941;SDS011;32676;52.630;4.896;2022-09-23T02:37:13;13.48;;;7.03;;
46941;SDS011;32676;52.630;4.896;2022-09-23T02:39:48;16.52;;;6.82;;
46941;SDS011;32676;52.630;4.896;2022-09-23T02:42:22;12.43;;;6.78;;
46941;SDS011;32676;52.630;4.896;2022-09-23T02:44:55;16.08;;;7.30;;
46941;SDS011;32676;52.630;4.896;2022-09-23T02:47:25;17.88;;;6.65;;
46941;SDS011;32676;52.630;4.896;2022-09-23T02:49:56;9.00;;;6.00;;
46941;SDS011;32676;52.630;4.896;2022-09-23T02:52:23;11.02;;;5.95;;
46941;SDS011;32676;52.630;4.896;2022-09-23T02:54:50;12.20;;;6.72;;
46941;SDS011;32676;52.630;4.896;2022-09-23T02:57:17;13.75;;;6.20;;
46941;SDS011;32676;52.630;4.896;2022-09-23T02:59:44;14.13;;;6.85;;
46941;SDS011;32676;52.630;4.896;2022-09-23T03:02:13;14.57;;;7.40;;
46941;SDS011;32676;52.630;4.896;2022-09-23T03:04:55;12.27;;;6.78;;
46941;SDS011;32676;52.630;4.896;2022-09-23T03:07:32;13.55;;;6.10;;
46941;SDS011;32676;52.630;4.896;2022-09-23T03:10:07;10.95;;;6.07;;
46941;SDS011;32676;52.630;4.896;2022-09-23T03:12:41;11.02;;;6.38;;
46941;SDS011;32676;52.630;4.896;2022-09-23T03:15:19;13.15;;;6.07;;
46941;SDS011;32676;52.630;4.896;2022-09-23T03:17:50;11.45;;;6.38;;
46941;SDS011;32676;52.630;4.896;2022-09-23T03:20:25;10.60;;;5.53;;
46941;SDS011;32676;52.630;4.896;2022-09-23T03:22:58;12.50;;;6.20;;
46941;SDS011;32676;52.630;4.896;2022-09-23T03:25:28;13.90;;;6.55;;
46941;SDS011;32676;52.630;4.896;2022-09-23T03:27:59;12.52;;;6.88;;
46941;SDS011;32676;52.630;4.896;2022-09-23T03:30:26;9.30;;;5.97;;
46941;SDS011;32676;52.630;4.896;2022-09-23T03:32:54;15.90;;;6.00;;
46941;SDS011;32676;52.630;4.896;2022-09-23T03:35:26;13.18;;;5.80;;
46941;SDS011;32676;52.630;4.896;2022-09-23T03:38:19;13.43;;;6.57;;
46941;SDS011;32676;52.630;4.896;2022-09-23T03:40:51;11.90;;;6.65;;
46941;SDS011;32676;52.630;4.896;2022-09-23T03:43:20;14.73;;;6.15;;
46941;SDS011;32676;52.630;4.896;2022-09-23T03:45:48;11.20;;;6.15;;
46941;SDS011;32676;52.630;4.896;2022-09-23T03:48:21;12.73;;;5.95;;
46941;SDS011;32676;52.630;4.896;2022-09-23T03:50:49;10.93;;;6.68;;
46941;SDS011;32676;52.630;4.896;2022-09-23T03:53:15;15.85;;;6.38;;
46941;SDS011;32676;52.630;4.896;2022-09-23T03:55:45;14.10;;;6.40;;
46941;SDS011;32676;52.630;4.896;2022-09-23T03:58:12;11.82;;;6.10;;
46941;SDS011;32676;52.630;4.896;2022-09-23T04:00:40;12.23;;;6.35;;
46941;SDS011;32676;52.630;4.896;2022-09-23T04:03:08;14.45;;;7.65;;
46941;SDS011;32676;52.630;4.896;2022-09-23T04:05:34;12.98;;;6.28;;
46941;SDS011;32676;52.630;4.896;2022-09-23T04:08:02;16.42;;;6.55;;
46941;SDS011;32676;52.630;4.896;2022-09-23T04:10:29;16.02;;;5.88;;
46941;SDS011;32676;52.630;4.896;2022-09-23T04:12:55;11.52;;;5.78;;
46941;SDS011;32676;52.630;4.896;2022-09-23T04:15:22;11.63;;;5.90;;
46941;SDS011;32676;52.630;4.896;2022-09-23T04:17:48;15.70;;;7.13;;
46941;SDS011;32676;52.630;4.896;2022-09-23T04:20:15;11.25;;;5.75;;
46941;SDS011;32676;52.630;4.896;2022-09-23T04:22:43;14.85;;;5.13;;
46941;SDS011;32676;52.630;4.896;2022-09-23T04:25:10;11.13;;;6.40;;
46941;SDS011;32676;52.630;4.896;2022-09-23T04:27:37;12.25;;;5.18;;
46941;SDS011;32676;52.630;4.896;2022-09-23T04:30:04;9.55;;;5.25;;
46941;SDS011;32676;52.630;4.896;2022-09-23T04:32:31;11.75;;;6.78;;
46941;SDS011;32676;52.630;4.896;2022-09-23T04:34:57;10.95;;;4.80;;
46941;SDS011;32676;52.630;4.896;2022-09-23T04:37:24;12.00;;;5.72;;
46941;SDS011;32676;52.630;4.896;2022-09-23T04:39:50;12.52;;;6.28;;
46941;SDS011;32676;52.630;4.896;2022-09-23T04:42:19;10.88;;;5.82;;
46941;SDS011;32676;52.630;4.896;2022-09-23T04:44:45;8.80;;;5.28;;
46941;SDS011;32676;52.630;4.896;2022-09-23T04:47:12;17.02;;;5.10;;
46941;SDS011;32676;52.630;4.896;2022-09-23T04:49:39;9.88;;;5.35;;
46941;SDS011;32676;52.630;4.896;2022-09-23T04:52:05;8.75;;;5.55;;
46941;SDS011;32676;52.630;4.896;2022-09-23T04:54:32;9.05;;;5.93;;
46941;SDS011;32676;52.630;4.896;2022-09-23T04:56:58;11.65;;;6.15;;
46941;SDS011;32676;52.630;4.896;2022-09-23T04:59:26;11.45;;;5.43;;
46941;SDS011;32676;52.630;4.896;2022-09-23T05:01:54;10.90;;;5.38;;
46941;SDS011;32676;52.630;4.896;2022-09-23T05:04:20;14.30;;;6.18;;
46941;SDS011;32676;52.630;4.896;2022-09-23T05:06:47;13.68;;;5.38;;
46941;SDS011;32676;52.630;4.896;2022-09-23T05:09:14;18.15;;;5.88;;
46941;SDS011;32676;52.630;4.896;2022-09-23T05:11:42;11.45;;;5.90;;
46941;SDS011;32676;52.630;4.896;2022-09-23T05:14:09;10.77;;;4.90;;
46941;SDS011;32676;52.630;4.896;2022-09-23T05:16:37;11.00;;;5.90;;
46941;SDS011;32676;52.630;4.896;2022-09-23T05:19:04;11.50;;;5.13;;
46941;SDS011;32676;52.630;4.896;2022-09-23T05:21:30;14.18;;;5.97;;
46941;SDS011;32676;52.630;4.896;2022-09-23T05:23:57;11.45;;;6.10;;
46941;SDS011;32676;52.630;4.896;2022-09-23T05:26:25;14.00;;;5.43;;
46941;SDS011;32676;52.630;4.896;2022-09-23T05:28:54;11.63;;;5.93;;
46941;SDS011;32676;52.630;4.896;2022-09-23T05:31:21;13.02;;;6.55;;
46941;SDS011;32676;52.630;4.896;2022-09-23T05:33:51;12.68;;;5.55;;
46941;SDS011;32676;52.630;4.896;2022-09-23T05:36:20;14.05;;;7.13;;
46941;SDS011;32676;52.630;4.896;2022-09-23T05:38:47;15.88;;;6.63;;
46941;SDS011;32676;52.630;4.896;2022-09-23T05:41:15;14.63;;;6.78;;
46941;SDS011;32676;52.630;4.896;2022-09-23T05:43:42;11.18;;;5.57;;
46941;SDS011;32676;52.630;4.896;2022-09-23T05:46:09;12.73;;;6.25;;
46941;SDS011;32676;52.630;4.896;2022-09-23T05:48:38;21.30;;;6.65;;
46941;SDS011;32676;52.630;4.896;2022-09-23T05:51:09;14.98;;;6.45;;
46941;SDS011;32676;52.630;4.896;2022-09-23T05:53:39;14.27;;;6.47;;
46941;SDS011;32676;52.630;4.896;2022-09-23T05:56:09;13.25;;;6.72;;
46941;SDS011;32676;52.630;4.896;2022-09-23T05:58:35;15.30;;;7.32;;
46941;SDS011;32676;52.630;4.896;2022-09-23T06:01:07;12.93;;;5.65;;
46941;SDS011;32676;52.630;4.896;2022-09-23T06:03:34;16.30;;;6.70;;
46941;SDS011;32676;52.630;4.896;2022-09-23T06:06:01;14.80;;;6.57;;
46941;SDS011;32676;52.630;4.896;2022-09-23T06:08:29;9.35;;;6.15;;
46941;SDS011;32676;52.630;4.896;2022-09-23T06:10:56;15.85;;;7.32;;
46941;SDS011;32676;52.630;4.896;2022-09-23T06:13:22;15.60;;;7.10;;
46941;SDS011;32676;52.630;4.896;2022-09-23T06:15:50;14.43;;;6.55;;
46941;SDS011;32676;52.630;4.896;2022-09-23T06:18:16;11.18;;;6.25;;
46941;SDS011;32676;52.630;4.896;2022-09-23T06:20:43;11.80;;;6.43;;
46941;SDS011;32676;52.630;4.896;2022-09-23T06:23:09;12.80;;;7.15;;
46941;SDS011;32676;52.630;4.896;2022-09-23T06:25:37;12.20;;;7.65;;
46941;SDS011;32676;52.630;4.896;2022-09-23T06:28:04;17.27;;;6.75;;
46941;SDS011;32676;52.630;4.896;2022-09-23T06:30:34;15.98;;;8.95;;
46941;SDS011;32676;52.630;4.896;2022-09-23T06:33:01;15.38;;;6.95;;
46941;SDS011;32676;52.630;4.896;2022-09-23T06:35:27;12.55;;;7.50;;
46941;SDS011;32676;52.630;4.896;2022-09-23T06:37:56;15.30;;;7.10;;
46941;SDS011;32676;52.630;4.896;2022-09-23T06:40:23;14.02;;;6.90;;
46941;SDS011;32676;52.630;4.896;2022-09-23T06:42:56;12.90;;;7.65;;
46941;SDS011;32676;52.630;4.896;2022-09-23T06:45:24;17.38;;;7.28;;
46941;SDS011;32676;52.630;4.896;2022-09-23T06:47:52;17.00;;;10.02;;
46941;SDS011;32676;52.630;4.896;2022-09-23T06:50:20;17.10;;;7.88;;
46941;SDS011;32676;52.630;4.896;2022-09-23T06:52:49;13.68;;;7.88;;
46941;SDS011;32676;52.630;4.896;2022-09-23T06:55:16;15.18;;;8.88;;
46941;SDS011;32676;52.630;4.896;2022-09-23T06:57:42;14.70;;;9.00;;
46941;SDS011;32676;52.630;4.896;2022-09-23T07:00:11;18.63;;;9.27;;
46941;SDS011;32676;52.630;4.896;2022-09-23T07:02:39;31.30;;;10.10;;
46941;SDS011;32676;52.630;4.896;2022-09-23T07:05:06;13.48;;;7.97;;
46941;SDS011;32676;52.630;4.896;2022-09-23T07:07:33;14.93;;;8.80;;
46941;SDS011;32676;52.630;4.896;2022-09-23T07:10:00;13.57;;;9.68;;
46941;SDS011;32676;52.630;4.896;2022-09-23T07:12:27;32.03;;;11.63;;
46941;SDS011;32676;52.630;4.896;2022-09-23T07:14:53;16.60;;;8.93;;
46941;SDS011;32676;52.630;4.896;2022-09-23T07:17:22;14.93;;;8.55;;
46941;SDS011;32676;52.630;4.896;2022-09-23T07:19:49;24.38;;;8.95;;
46941;SDS011;32676;52.630;4.896;2022-09-23T07:22:15;16.38;;;8.95;;
46941;SDS011;32676;52.630;4.896;2022-09-23T07:24:42;18.30;;;9.55;;
46941;SDS011;32676;52.630;4.896;2022-09-23T07:27:10;15.18;;;8.20;;
46941;SDS011;32676;52.630;4.896;2022-09-23T07:29:38;20.45;;;9.57;;
46941;SDS011;32676;52.630;4.896;2022-09-23T07:32:04;18.92;;;10.65;;
46941;SDS011;32676;52.630;4.896;2022-09-23T07:34:32;24.02;;;9.38;;
46941;SDS011;32676;52.630;4.896;2022-09-23T07:37:02;20.77;;;10.85;;
46941;SDS011;32676;52.630;4.896;2022-09-23T07:39:28;14.05;;;8.10;;
46941;SDS011;32676;52.630;4.896;2022-09-23T07:41:55;13.10;;;9.38;;
46941;SDS011;32676;52.630;4.896;2022-09-23T07:44:21;19.95;;;9.70;;
46941;SDS011;32676;52.630;4.896;2022-09-23T07:46:49;20.20;;;9.98;;
46941;SDS011;32676;52.630;4.896;2022-09-23T07:49:16;13.48;;;8.60;;
46941;SDS011;32676;52.630;4.896;2022-09-23T07:51:43;23.00;;;9.95;;
46941;SDS011;32676;52.630;4.896;2022-09-23T07:54:12;15.70;;;8.68;;
46941;SDS011;32676;52.630;4.896;2022-09-23T07:56:40;18.23;;;10.80;;
46941;SDS011;32676;52.630;4.896;2022-09-23T07:59:07;22.50;;;9.40;;
46941;SDS011;32676;52.630;4.896;2022-09-23T08:01:40;16.70;;;9.52;;
46941;SDS011;32676;52.630;4.896;2022-09-23T08:04:09;20.90;;;9.05;;
46941;SDS011;32676;52.630;4.896;2022-09-23T08:06:39;18.90;;;10.18;;
46941;SDS011;32676;52.630;4.896;2022-09-23T08:09:08;16.95;;;10.20;;
46941;SDS011;32676;52.630;4.896;2022-09-23T08:11:36;20.10;;;10.68;;
46941;SDS011;32676;52.630;4.896;2022-09-23T08:14:05;20.58;;;10.27;;
46941;SDS011;32676;52.630;4.896;2022-09-23T08:16:32;17.52;;;11.05;;
46941;SDS011;32676;52.630;4.896;2022-09-23T08:18:59;20.02;;;11.48;;
46941;SDS011;32676;52.630;4.896;2022-09-23T08:21:25;22.40;;;9.90;;
46941;SDS011;32676;52.630;4.896;2022-09-23T08:23:52;16.15;;;11.32;;
46941;SDS011;32676;52.630;4.896;2022-09-23T08:26:20;17.52;;;10.93;;
46941;SDS011;32676;52.630;4.896;2022-09-23T08:28:46;20.38;;;11.18;;
46941;SDS011;32676;52.630;4.896;2022-09-23T08:31:13;17.70;;;11.55;;
46941;SDS011;32676;52.630;4.896;2022-09-23T08:33:40;18.40;;;11.27;;
46941;SDS011;32676;52.630;4.896;2022-09-23T08:36:07;23.15;;;11.80;;
46941;SDS011;32676;52.630;4.896;2022-09-23T08:38:33;25.90;;;12.25;;
46941;SDS011;32676;52.630;4.896;2022-09-23T08:41:02;20.08;;;12.13;;
46941;SDS011;32676;52.630;4.896;2022-09-23T08:43:35;16.75;;;10.13;;
46941;SDS011;32676;52.630;4.896;2022-09-23T08:46:04;34.05;;;11.57;;
46941;SDS011;32676;52.630;4.896;2022-09-23T08:48:35;26.67;;;11.48;;
46941;SDS011;32676;52.630;4.896;2022-09-23T08:51:06;23.67;;;11.77;;
46941;SDS011;32676;52.630;4.896;2022-09-23T08:53:37;21.35;;;11.68;;
46941;SDS011;32676;52.630;4.896;2022-09-23T08:56:08;19.23;;;11.43;;
46941;SDS011;32676;52.630;4.896;2022-09-23T08:58:46;25.15;;;10.82;;
46941;SDS011;32676;52.630;4.896;2022-09-23T09:01:22;21.98;;;12.38;;
46941;SDS011;32676;52.630;4.896;2022-09-23T09:03:55;24.05;;;11.68;;
46941;SDS011;32676;52.630;4.896;2022-09-23T09:06:25;23.38;;;12.40;;
46941;SDS011;32676;52.630;4.896;2022-09-23T09:08:56;15.02;;;10.55;;
46941;SDS011;32676;52.630;4.896;2022-09-23T09:11:27;18.35;;;10.57;;
46941;SDS011;32676;52.630;4.896;2022-09-23T09:14:02;21.65;;;11.05;;
46941;SDS011;32676;52.630;4.896;2022-09-23T09:16:45;20.58;;;11.35;;
46941;SDS011;32676;52.630;4.896;2022-09-23T09:19:17;21.80;;;13.15;;
46941;SDS011;32676;52.630;4.896;2022-09-23T09:21:46;19.20;;;11.10;;
46941;SDS011;32676;52.630;4.896;2022-09-23T09:24:20;18.25;;;11.52;;
46941;SDS011;32676;52.630;4.896;2022-09-23T09:26:57;20.27;;;12.73;;
46941;SDS011;32676;52.630;4.896;2022-09-23T09:29:26;21.67;;;13.13;;
46941;SDS011;32676;52.630;4.896;2022-09-23T09:31:57;22.17;;;12.73;;
46941;SDS011;32676;52.630;4.896;2022-09-23T09:34:25;23.63;;;13.10;;
46941;SDS011;32676;52.630;4.896;2022-09-23T09:36:59;19.52;;;12.18;;
46941;SDS011;32676;52.630;4.896;2022-09-23T09:39:29;23.17;;;11.52;;
46941;SDS011;32676;52.630;4.896;2022-09-23T09:41:56;25.77;;;12.50;;
46941;SDS011;32676;52.630;4.896;2022-09-23T09:44:26;18.20;;;11.55;;
46941;SDS011;32676;52.630;4.896;2022-09-23T09:47:13;22.65;;;12.63;;
46941;SDS011;32676;52.630;4.896;2022-09-23T09:49:53;23.80;;;11.02;;
46941;SDS011;32676;52.630;4.896;2022-09-23T09:52:23;18.95;;;12.25;;
46941;SDS011;32676;52.630;4.896;2022-09-23T09:54:54;21.00;;;10.55;;
46941;SDS011;32676;52.630;4.896;2022-09-23T09:57:31;28.58;;;10.80;;
46941;SDS011;32676;52.630;4.896;2022-09-23T10:03:04;22.83;;;11.82;;
46941;SDS011;32676;52.630;4.896;2022-09-23T10:05:47;15.40;;;10.75;;
46941;SDS011;32676;52.630;4.896;2022-09-23T10:08:23;20.08;;;11.07;;
46941;SDS011;32676;52.630;4.896;2022-09-23T10:10:58;25.75;;;11.45;;
46941;SDS011;32676;52.630;4.896;2022-09-23T10:13:26;27.80;;;11.68;;
46941;SDS011;32676;52.630;4.896;2022-09-23T10:15:55;19.52;;;11.77;;
46941;SDS011;32676;52.630;4.896;2022-09-23T10:18:25;23.08;;;10.50;;
46941;SDS011;32676;52.630;4.896;2022-09-23T10:20:58;17.13;;;10.10;;
46941;SDS011;32676;52.630;4.896;2022-09-23T10:23:27;14.27;;;11.07;;
46941;SDS011;32676;52.630;4.896;2022-09-23T10:25:57;24.55;;;10.45;;
46941;SDS011;32676;52.630;4.896;2022-09-23T10:28:29;23.00;;;10.80;;
46941;SDS011;32676;52.630;4.896;2022-09-23T10:31:04;29.13;;;12.85;;
46941;SDS011;32676;52.630;4.896;2022-09-23T10:33:31;26.92;;;12.10;;
46941;SDS011;32676;52.630;4.896;2022-09-23T10:35:57;21.58;;;11.73;;
46941;SDS011;32676;52.630;4.896;2022-09-23T10:38:24;18.25;;;11.13;;
46941;SDS011;32676;52.630;4.896;2022-09-23T10:40:50;20.73;;;11.27;;
46941;SDS011;32676;52.630;4.896;2022-09-23T10:43:38;22.00;;;11.25;;
46941;SDS011;32676;52.630;4.896;2022-09-23T10:46:28;25.17;;;11.95;;
46941;SDS011;32676;52.630;4.896;2022-09-23T10:49:12;20.38;;;12.18;;
46941;SDS011;32676;52.630;4.896;2022-09-23T10:52:02;18.92;;;10.55;;
46941;SDS011;32676;52.630;4.896;2022-09-23T10:54:42;21.23;;;11.02;;
46941;SDS011;32676;52.630;4.896;2022-09-23T10:57:20;16.85;;;11.50;;
46941;SDS011;32676;52.630;4.896;2022-09-23T11:00:18;18.75;;;10.25;;
46941;SDS011;32676;52.630;4.896;2022-09-23T11:02:53;20.60;;;11.10;;
46941;SDS011;32676;52.630;4.896;2022-09-23T11:05:34;24.73;;;12.13;;
46941;SDS011;32676;52.630;4.896;2022-09-23T11:08:16;34.08;;;12.10;;
46941;SDS011;32676;52.630;4.896;2022-09-23T11:11:02;24.80;;;11.77;;
46941;SDS011;32676;52.630;4.896;2022-09-23T11:13:41;25.75;;;12.02;;
46941;SDS011;32676;52.630;4.896;2022-09-23T11:19:03;22.23;;;10.25;;
46941;SDS011;32676;52.630;4.896;2022-09-23T11:21:54;22.73;;;11.10;;
46941;SDS011;32676;52.630;4.896;2022-09-23T11:27:29;18.35;;;10.93;;
46941;SDS011;32676;52.630;4.896;2022-09-23T11:30:14;16.58;;;9.40;;
46941;SDS011;32676;52.630;4.896;2022-09-23T11:38:03;17.42;;;9.57;;
46941;SDS011;32676;52.630;4.896;2022-09-23T11:56:06;17.38;;;9.75;;
46941;SDS011;32676;52.630;4.896;2022-09-23T11:58:40;20.75;;;10.13;;
46941;SDS011;32676;52.630;4.896;2022-09-23T12:01:11;17.40;;;9.95;;
46941;SDS011;32676;52.630;4.896;2022-09-23T12:03:46;20.15;;;9.68;;
46941;SDS011;32676;52.630;4.896;2022-09-23T12:06:18;18.98;;;9.80;;
46941;SDS011;32676;52.630;4.896;2022-09-23T12:08:48;14.73;;;8.95;;
46941;SDS011;32676;52.630;4.896;2022-09-23T12:11:25;21.35;;;9.13;;
46941;SDS011;32676;52.630;4.896;2022-09-23T12:13:59;20.10;;;9.30;;
46941;SDS011;32676;52.630;4.896;2022-09-23T12:19:45;15.60;;;8.77;;
46941;SDS011;32676;52.630;4.896;2022-09-23T12:22:37;22.60;;;10.18;;
46941;SDS011;32676;52.630;4.896;2022-09-23T12:25:23;20.33;;;9.52;;
46941;SDS011;32676;52.630;4.896;2022-09-23T12:28:00;16.85;;;9.07;;
46941;SDS011;32676;52.630;4.896;2022-09-23T12:30:31;13.88;;;8.13;;
46941;SDS011;32676;52.630;4.896;2022-09-23T12:33:07;20.83;;;9.95;;
46941;SDS011;32676;52.630;4.896;2022-09-23T12:35:37;18.17;;;9.20;;
46941;SDS011;32676;52.630;4.896;2022-09-23T12:38:13;20.88;;;10.23;;
46941;SDS011;32676;52.630;4.896;2022-09-23T12:40:44;20.25;;;9.90;;
46941;SDS011;32676;52.630;4.896;2022-09-23T12:43:17;18.48;;;9.80;;
46941;SDS011;32676;52.630;4.896;2022-09-23T12:45:44;22.13;;;11.48;;
46941;SDS011;32676;52.630;4.896;2022-09-23T12:51:13;19.38;;;8.95;;
46941;SDS011;32676;52.630;4.896;2022-09-23T12:56:26;15.77;;;9.93;;
46941;SDS011;32676;52.630;4.896;2022-09-23T12:59:26;16.30;;;8.93;;
46941;SDS011;32676;52.630;4.896;2022-09-23T13:02:12;19.67;;;10.68;;
46941;SDS011;32676;52.630;4.896;2022-09-23T13:04:53;14.10;;;8.98;;
46941;SDS011;32676;52.630;4.896;2022-09-23T13:07:41;18.00;;;8.93;;
46941;SDS011;32676;52.630;4.896;2022-09-23T13:10:14;17.65;;;10.32;;
46941;SDS011;32676;52.630;4.896;2022-09-23T13:12:42;20.73;;;9.35;;
46941;SDS011;32676;52.630;4.896;2022-09-23T13:15:16;16.23;;;8.73;;
46941;SDS011;32676;52.630;4.896;2022-09-23T13:17:51;17.00;;;9.20;;
46941;SDS011;32676;52.630;4.896;2022-09-23T13:20:43;16.05;;;8.07;;
46941;SDS011;32676;52.630;4.896;2022-09-23T13:25:56;15.75;;;9.57;;
46941;SDS011;32676;52.630;4.896;2022-09-23T13:28:27;17.17;;;8.25;;
46941;SDS011;32676;52.630;4.896;2022-09-23T13:30:57;23.30;;;10.13;;
46941;SDS011;32676;52.630;4.896;2022-09-23T13:33:28;15.45;;;9.30;;
46941;SDS011;32676;52.630;4.896;2022-09-23T13:36:01;19.98;;;9.85;;
46941;SDS011;32676;52.630;4.896;2022-09-23T13:38:30;14.48;;;8.43;;
46941;SDS011;32676;52.630;4.896;2022-09-23T13:40:59;19.00;;;9.95;;
46941;SDS011;32676;52.630;4.896;2022-09-23T13:43:29;24.25;;;10.55;;
46941;SDS011;32676;52.630;4.896;2022-09-23T13:45:58;19.63;;;8.82;;
46941;SDS011;32676;52.630;4.896;2022-09-23T13:48:29;16.02;;;9.95;;
46941;SDS011;32676;52.630;4.896;2022-09-23T13:50:57;18.30;;;9.55;;
46941;SDS011;32676;52.630;4.896;2022-09-23T13:53:31;17.35;;;8.57;;
46941;SDS011;32676;52.630;4.896;2022-09-23T13:55:59;15.85;;;8.85;;
46941;SDS011;32676;52.630;4.896;2022-09-23T13:58:27;22.25;;;9.77;;
46941;SDS011;32676;52.630;4.896;2022-09-23T14:00:55;15.45;;;9.32;;
46941;SDS011;32676;52.630;4.896;2022-09-23T14:03:23;15.75;;;8.80;;
46941;SDS011;32676;52.630;4.896;2022-09-23T14:05:51;19.00;;;9.90;;
46941;SDS011;32676;52.630;4.896;2022-09-23T14:08:19;20.88;;;11.65;;
46941;SDS011;32676;52.630;4.896;2022-09-23T14:10:48;19.50;;;9.70;;
46941;SDS011;32676;52.630;4.896;2022-09-23T14:13:16;15.43;;;10.82;;
46941;SDS011;32676;52.630;4.896;2022-09-23T14:15:48;17.05;;;9.93;;
46941;SDS011;32676;52.630;4.896;2022-09-23T14:18:17;17.58;;;10.13;;
46941;SDS011;32676;52.630;4.896;2022-09-23T14:20:49;20.70;;;11.43;;
46941;SDS011;32676;52.630;4.896;2022-09-23T14:23:16;13.90;;;8.88;;
46941;SDS011;32676;52.630;4.896;2022-09-23T14:25:42;15.57;;;10.07;;
46941;SDS011;32676;52.630;4.896;2022-09-23T14:28:12;17.00;;;9.77;;
46941;SDS011;32676;52.630;4.896;2022-09-23T14:30:41;18.50;;;8.90;;
46941;SDS011;32676;52.630;4.896;2022-09-23T14:33:13;22.80;;;11.55;;
46941;SDS011;32676;52.630;4.896;2022-09-23T14:35:42;21.65;;;11.10;;
46941;SDS011;32676;52.630;4.896;2022-09-23T14:38:18;20.95;;;10.55;;
46941;SDS011;32676;52.630;4.896;2022-09-23T14:41:04;15.40;;;9.00;;
46941;SDS011;32676;52.630;4.896;2022-09-23T14:43:46;18.08;;;10.52;;
46941;SDS011;32676;52.630;4.896;2022-09-23T14:46:15;19.17;;;10.95;;
46941;SDS011;32676;52.630;4.896;2022-09-23T14:48:46;22.83;;;11.00;;
46941;SDS011;32676;52.630;4.896;2022-09-23T14:51:18;14.90;;;10.00;;
46941;SDS011;32676;52.630;4.896;2022-09-23T14:53:45;16.60;;;10.32;;
46941;SDS011;32676;52.630;4.896;2022-09-23T14:56:13;16.35;;;10.15;;
46941;SDS011;32676;52.630;4.896;2022-09-23T14:58:54;16.85;;;9.60;;
46941;SDS011;32676;52.630;4.896;2022-09-23T15:01:34;20.25;;;10.02;;
46941;SDS011;32676;52.630;4.896;2022-09-23T15:04:10;13.25;;;10.40;;
46941;SDS011;32676;52.630;4.896;2022-09-23T15:06:42;13.80;;;9.50;;
46941;SDS011;32676;52.630;4.896;2022-09-23T15:09:15;17.98;;;9.82;;
46941;SDS011;32676;52.630;4.896;2022-09-23T15:11:45;17.83;;;9.43;;
46941;SDS011;32676;52.630;4.896;2022-09-23T15:14:13;21.88;;;10.45;;
46941;SDS011;32676;52.630;4.896;2022-09-23T15:16:40;20.35;;;10.60;;
46941;SDS011;32676;52.630;4.896;2022-09-23T15:19:11;18.15;;;11.57;;
46941;SDS011;32676;52.630;4.896;2022-09-23T15:21:43;14.55;;;9.52;;
46941;SDS011;32676;52.630;4.896;2022-09-23T15:27:08;20.42;;;10.38;;
46941;SDS011;32676;52.630;4.896;2022-09-23T15:29:38;12.50;;;7.93;;
46941;SDS011;32676;52.630;4.896;2022-09-23T15:32:05;17.17;;;9.57;;
46941;SDS011;32676;52.630;4.896;2022-09-23T15:34:32;14.95;;;9.10;;
46941;SDS011;32676;52.630;4.896;2022-09-23T15:36:59;24.45;;;9.60;;